Etusivu
METAR-TAF:

METAR-TAF

Lentoasemat :

Savonlinnan lentoasema

Savonlinna, Suomi

Leveyspiiri: 61-57N, Pituuspiiri: 028-57E, korkeus merenpinnasta: 95 m

Tämänhetkinen sää

Tämä raportti tehtiin 10 minuuttia sitten, kello 09.20 UTC
Tuuli 9 kn etelästä, vaihdellen idän/kaakon ja lännen/lounaan välillä
Lämpötila 22°C
Kosteus 60%
Ilmanpaine 1020 hPa
Näkyvyys 10 km tai enemmän
Hajanaisia pilviä 3000 ft:n korkeudessa
Hajanaisia pilviä 5400 ft:n korkeudessa

METAR: EFSA 170920Z AUTO 19009KT 120V250 9999 SCT030 SCT054 22/14 Q1020

Aika: 12:30 (09:30 UTC)


TAF: puuttuu

Säähavainnot ja -ennusteet yli 4000 lentoasemalta (METAR- ja TAF-raportit).

Käytössä olevat sääasemat on merkitty karttaan keltaisilla ja punaisilla pisteillä.

Aseta hiiri pisteen päälle nähdäksesi sääaseman nimen.

Klikkaa sitten nähdäksesi säähavainnot ja -ennusteet.

Kartan vaihtaminen: klikkaa mustalla rastilla varustettuja vihreitä pisteitä, niin voit zoomata sisään; viivalla varustettua vihreää pistettä, niin voit zoomata ulos tai vihreitä nuolia, niin pääset viereisille kartoille.


METAR-TAF: